sensor_id;sensor_type;location;lat;lon;timestamp;pressure;altitude;pressure_sealevel;temperature;humidity
47104;BME280;32853;52.164;5.400;2023-01-27T00:01:05;102497.56;;;6.76;100.00
47104;BME280;32853;52.164;5.400;2023-01-27T00:03:30;102508.84;;;6.65;100.00
47104;BME280;32853;52.164;5.400;2023-01-27T00:05:55;102509.69;;;6.70;100.00
47104;BME280;32853;52.164;5.400;2023-01-27T00:08:40;102512.28;;;6.63;100.00
47104;BME280;32853;52.164;5.400;2023-01-27T00:11:14;102511.41;;;6.58;100.00
47104;BME280;32853;52.164;5.400;2023-01-27T00:14:04;102516.69;;;6.88;100.00
47104;BME280;32853;52.164;5.400;2023-01-27T00:16:30;102476.66;;;6.34;100.00
47104;BME280;32853;52.164;5.400;2023-01-27T00:18:57;102513.19;;;6.80;100.00
47104;BME280;32853;52.164;5.400;2023-01-27T00:21:22;102504.53;;;6.81;100.00
47104;BME280;32853;52.164;5.400;2023-01-27T00:24:11;102491.41;;;6.38;100.00
47104;BME280;32853;52.164;5.400;2023-01-27T00:26:55;102503.59;;;6.55;100.00
47104;BME280;32853;52.164;5.400;2023-01-27T00:29:21;102501.91;;;6.66;100.00
47104;BME280;32853;52.164;5.400;2023-01-27T00:31:46;102508.84;;;6.68;100.00
47104;BME280;32853;52.164;5.400;2023-01-27T00:34:30;102513.97;;;6.50;100.00
47104;BME280;32853;52.164;5.400;2023-01-27T00:36:55;102520.88;;;6.50;100.00
47104;BME280;32853;52.164;5.400;2023-01-27T00:39:20;102518.06;;;6.01;100.00
47104;BME280;32853;52.164;5.400;2023-01-27T00:41:48;102456.38;;;5.68;100.00
47104;BME280;32853;52.164;5.400;2023-01-27T00:44:13;102476.28;;;5.70;100.00
47104;BME280;32853;52.164;5.400;2023-01-27T00:46:45;102524.13;;;6.03;100.00
47104;BME280;32853;52.164;5.400;2023-01-27T00:49:10;102469.34;;;5.66;100.00
47104;BME280;32853;52.164;5.400;2023-01-27T00:51:44;102514.56;;;5.97;100.00
47104;BME280;32853;52.164;5.400;2023-01-27T00:54:10;102523.94;;;5.80;100.00
47104;BME280;32853;52.164;5.400;2023-01-27T00:56:35;102526.72;;;6.04;100.00
47104;BME280;32853;52.164;5.400;2023-01-27T00:59:02;102525.16;;;6.32;100.00
47104;BME280;32853;52.164;5.400;2023-01-27T01:01:28;102521.84;;;6.70;100.00
47104;BME280;32853;52.164;5.400;2023-01-27T01:03:56;102527.91;;;6.74;100.00
47104;BME280;32853;52.164;5.400;2023-01-27T01:06:25;102527.03;;;6.72;100.00
47104;BME280;32853;52.164;5.400;2023-01-27T01:08:51;102522.72;;;6.83;100.00
47104;BME280;32853;52.164;5.400;2023-01-27T01:11:20;102519.22;;;6.67;100.00
47104;BME280;32853;52.164;5.400;2023-01-27T01:13:47;102527.88;;;6.57;100.00
47104;BME280;32853;52.164;5.400;2023-01-27T01:16:19;102536.59;;;6.85;100.00
47104;BME280;32853;52.164;5.400;2023-01-27T01:18:45;102530.56;;;6.96;100.00
47104;BME280;32853;52.164;5.400;2023-01-27T01:21:11;102536.63;;;6.94;100.00
47104;BME280;32853;52.164;5.400;2023-01-27T01:23:43;102527.97;;;6.90;100.00
47104;BME280;32853;52.164;5.400;2023-01-27T01:26:11;102514.91;;;6.66;100.00
47104;BME280;32853;52.164;5.400;2023-01-27T01:28:37;102487.09;;;6.50;100.00
47104;BME280;32853;52.164;5.400;2023-01-27T01:31:05;102527.06;;;6.78;100.00
47104;BME280;32853;52.164;5.400;2023-01-27T01:33:30;102525.31;;;6.67;100.00
47104;BME280;32853;52.164;5.400;2023-01-27T01:36:16;102537.47;;;6.78;100.00
47104;BME280;32853;52.164;5.400;2023-01-27T01:38:45;102543.50;;;6.66;100.00
47104;BME280;32853;52.164;5.400;2023-01-27T01:41:18;102534.88;;;6.79;100.00
47104;BME280;32853;52.164;5.400;2023-01-27T01:44:17;102538.31;;;6.70;100.00
47104;BME280;32853;52.164;5.400;2023-01-27T01:46:43;102542.53;;;6.46;100.00
47104;BME280;32853;52.164;5.400;2023-01-27T01:49:08;102549.38;;;6.25;100.00
47104;BME280;32853;52.164;5.400;2023-01-27T01:51:41;102500.75;;;6.01;100.00
47104;BME280;32853;52.164;5.400;2023-01-27T01:57:33;102543.00;;;5.85;100.00
47104;BME280;32853;52.164;5.400;2023-01-27T02:00:06;102544.91;;;6.04;100.00
47104;BME280;32853;52.164;5.400;2023-01-27T02:02:32;102545.75;;;6.00;100.00
47104;BME280;32853;52.164;5.400;2023-01-27T02:05:02;102503.97;;;5.68;100.00
47104;BME280;32853;52.164;5.400;2023-01-27T02:07:34;102540.56;;;5.99;100.00
47104;BME280;32853;52.164;5.400;2023-01-27T02:10:02;102554.28;;;5.87;100.00
47104;BME280;32853;52.164;5.400;2023-01-27T02:12:28;102552.69;;;6.01;100.00
47104;BME280;32853;52.164;5.400;2023-01-27T02:14:53;102565.31;;;5.59;100.00
47104;BME280;32853;52.164;5.400;2023-01-27T02:17:19;102552.44;;;5.69;100.00
47104;BME280;32853;52.164;5.400;2023-01-27T02:22:35;102555.13;;;5.86;100.00
47104;BME280;32853;52.164;5.400;2023-01-27T02:25:14;102563.09;;;6.07;100.00
47104;BME280;32853;52.164;5.400;2023-01-27T02:27:43;102522.22;;;5.82;100.00
47104;BME280;32853;52.164;5.400;2023-01-27T02:30:09;102480.69;;;5.83;100.00
47104;BME280;32853;52.164;5.400;2023-01-27T02:32:34;102546.75;;;6.22;100.00
47104;BME280;32853;52.164;5.400;2023-01-27T02:35:00;102561.28;;;5.94;100.00
47104;BME280;32853;52.164;5.400;2023-01-27T02:37:27;102568.03;;;5.72;100.00
47104;BME280;32853;52.164;5.400;2023-01-27T02:39:54;102562.91;;;5.81;100.00
47104;BME280;32853;52.164;5.400;2023-01-27T02:42:20;102513.53;;;5.75;100.00
47104;BME280;32853;52.164;5.400;2023-01-27T02:44:45;102572.28;;;5.64;100.00
47104;BME280;32853;52.164;5.400;2023-01-27T02:47:13;102509.59;;;5.15;100.00
47104;BME280;32853;52.164;5.400;2023-01-27T02:49:39;102563.69;;;5.71;100.00
47104;BME280;32853;52.164;5.400;2023-01-27T02:52:04;102527.19;;;5.51;100.00
47104;BME280;32853;52.164;5.400;2023-01-27T02:54:31;102558.69;;;5.91;100.00
47104;BME280;32853;52.164;5.400;2023-01-27T02:56:57;102515.06;;;5.47;100.00
47104;BME280;32853;52.164;5.400;2023-01-27T02:59:22;102584.53;;;5.79;100.00
47104;BME280;32853;52.164;5.400;2023-01-27T03:01:47;102581.94;;;5.83;100.00
47104;BME280;32853;52.164;5.400;2023-01-27T03:04:13;102563.16;;;6.12;100.00
47104;BME280;32853;52.164;5.400;2023-01-27T03:06:39;102520.59;;;5.92;100.00
47104;BME280;32853;52.164;5.400;2023-01-27T03:09:05;102551.63;;;5.78;100.00
47104;BME280;32853;52.164;5.400;2023-01-27T03:11:30;102585.34;;;5.75;100.00
47104;BME280;32853;52.164;5.400;2023-01-27T03:14:14;102534.28;;;5.75;100.00
47104;BME280;32853;52.164;5.400;2023-01-27T03:16:40;102575.03;;;5.86;100.00
47104;BME280;32853;52.164;5.400;2023-01-27T03:19:24;102572.63;;;6.08;100.00
47104;BME280;32853;52.164;5.400;2023-01-27T03:21:51;102550.91;;;5.96;100.00
47104;BME280;32853;52.164;5.400;2023-01-27T03:24:17;102596.78;;;5.95;100.00
47104;BME280;32853;52.164;5.400;2023-01-27T03:26:43;102583.75;;;5.89;100.00
47104;BME280;32853;52.164;5.400;2023-01-27T03:29:22;102548.19;;;5.80;100.00
47104;BME280;32853;52.164;5.400;2023-01-27T03:32:14;102603.59;;;5.84;100.00
47104;BME280;32853;52.164;5.400;2023-01-27T03:34:40;102587.16;;;5.87;100.00
47104;BME280;32853;52.164;5.400;2023-01-27T03:37:15;102596.75;;;5.91;100.00
47104;BME280;32853;52.164;5.400;2023-01-27T03:40:17;102600.53;;;6.34;100.00
47104;BME280;32853;52.164;5.400;2023-01-27T03:43:02;102590.94;;;6.22;100.00
47104;BME280;32853;52.164;5.400;2023-01-27T03:45:49;102591.47;;;5.86;100.00
47104;BME280;32853;52.164;5.400;2023-01-27T03:48:34;102602.78;;;5.90;100.00
47104;BME280;32853;52.164;5.400;2023-01-27T03:51:19;102538.31;;;5.38;100.00
47104;BME280;32853;52.164;5.400;2023-01-27T03:53:52;102597.69;;;5.99;100.00
47104;BME280;32853;52.164;5.400;2023-01-27T03:56:18;102601.25;;;6.11;100.00
47104;BME280;32853;52.164;5.400;2023-01-27T03:58:44;102593.38;;;6.02;100.00
47104;BME280;32853;52.164;5.400;2023-01-27T04:01:18;102593.38;;;6.02;100.00
47104;BME280;32853;52.164;5.400;2023-01-27T04:03:44;102570.91;;;6.09;100.00
47104;BME280;32853;52.164;5.400;2023-01-27T04:06:30;102610.94;;;6.37;100.00
47104;BME280;32853;52.164;5.400;2023-01-27T04:09:29;102604.75;;;6.18;100.00
47104;BME280;32853;52.164;5.400;2023-01-27T04:11:58;102601.41;;;6.37;100.00
47104;BME280;32853;52.164;5.400;2023-01-27T04:16:52;102608.34;;;6.41;100.00
47104;BME280;32853;52.164;5.400;2023-01-27T04:19:19;102615.31;;;6.49;100.00
47104;BME280;32853;52.164;5.400;2023-01-27T04:21:45;102613.53;;;6.41;100.00
47104;BME280;32853;52.164;5.400;2023-01-27T04:24:20;102619.66;;;6.45;100.00
47104;BME280;32853;52.164;5.400;2023-01-27T04:26:51;102630.13;;;6.63;100.00
47104;BME280;32853;52.164;5.400;2023-01-27T04:29:27;102624.97;;;6.66;100.00
47104;BME280;32853;52.164;5.400;2023-01-27T04:32:09;102598.91;;;6.60;100.00
47104;BME280;32853;52.164;5.400;2023-01-27T04:34:35;102610.97;;;6.43;100.00
47104;BME280;32853;52.164;5.400;2023-01-27T04:37:01;102617.16;;;6.69;100.00
47104;BME280;32853;52.164;5.400;2023-01-27T04:39:33;102623.84;;;6.28;100.00
47104;BME280;32853;52.164;5.400;2023-01-27T04:41:59;102630.97;;;6.58;100.00
47104;BME280;32853;52.164;5.400;2023-01-27T04:44:25;102636.25;;;6.76;100.00
47104;BME280;32853;52.164;5.400;2023-01-27T04:46:50;102635.38;;;6.69;100.00
47104;BME280;32853;52.164;5.400;2023-01-27T04:49:16;102579.69;;;6.29;100.00
47104;BME280;32853;52.164;5.400;2023-01-27T04:51:43;102640.44;;;6.50;100.00
47104;BME280;32853;52.164;5.400;2023-01-27T04:54:08;102637.84;;;6.47;100.00
47104;BME280;32853;52.164;5.400;2023-01-27T04:56:39;102582.28;;;6.25;100.00
47104;BME280;32853;52.164;5.400;2023-01-27T04:59:12;102634.44;;;6.61;100.00
47104;BME280;32853;52.164;5.400;2023-01-27T05:01:41;102631.72;;;6.34;100.00
47104;BME280;32853;52.164;5.400;2023-01-27T05:04:06;102623.91;;;6.32;100.00
47104;BME280;32853;52.164;5.400;2023-01-27T05:06:34;102623.06;;;6.35;100.00
47104;BME280;32853;52.164;5.400;2023-01-27T05:08:59;102642.25;;;6.61;100.00
47104;BME280;32853;52.164;5.400;2023-01-27T05:11:25;102637.06;;;6.61;100.00
47104;BME280;32853;52.164;5.400;2023-01-27T05:13:50;102576.16;;;6.18;100.00
47104;BME280;32853;52.164;5.400;2023-01-27T05:16:18;102602.19;;;6.26;100.00
47104;BME280;32853;52.164;5.400;2023-01-27T05:18:46;102552.53;;;5.81;100.00
47104;BME280;32853;52.164;5.400;2023-01-27T05:21:21;102591.84;;;6.32;100.00
47104;BME280;32853;52.164;5.400;2023-01-27T05:23:47;102630.00;;;6.42;100.00
47104;BME280;32853;52.164;5.400;2023-01-27T05:26:15;102572.56;;;5.96;100.00
47104;BME280;32853;52.164;5.400;2023-01-27T05:28:43;102588.97;;;5.92;100.00
47104;BME280;32853;52.164;5.400;2023-01-27T05:31:12;102657.63;;;6.28;100.00
47104;BME280;32853;52.164;5.400;2023-01-27T05:33:38;102647.38;;;6.52;100.00
47104;BME280;32853;52.164;5.400;2023-01-27T05:36:06;102632.66;;;6.47;100.00
47104;BME280;32853;52.164;5.400;2023-01-27T05:38:32;102647.50;;;6.70;100.00
47104;BME280;32853;52.164;5.400;2023-01-27T05:40:59;102659.66;;;6.73;100.00
47104;BME280;32853;52.164;5.400;2023-01-27T05:43:29;102661.25;;;6.51;100.00
47104;BME280;32853;52.164;5.400;2023-01-27T05:46:05;102664.53;;;6.23;100.00
47104;BME280;32853;52.164;5.400;2023-01-27T05:48:35;102650.84;;;6.50;100.00
47104;BME280;32853;52.164;5.400;2023-01-27T05:51:10;102667.38;;;6.61;100.00
47104;BME280;32853;52.164;5.400;2023-01-27T05:53:39;102673.38;;;6.46;100.00
47104;BME280;32853;52.164;5.400;2023-01-27T05:56:23;102670.84;;;6.64;100.00
47104;BME280;32853;52.164;5.400;2023-01-27T05:58:54;102673.28;;;6.35;100.00
47104;BME280;32853;52.164;5.400;2023-01-27T06:01:28;102672.50;;;6.50;100.00
47104;BME280;32853;52.164;5.400;2023-01-27T06:03:54;102678.63;;;6.57;100.00
47104;BME280;32853;52.164;5.400;2023-01-27T06:06:22;102694.97;;;6.39;100.00
47104;BME280;32853;52.164;5.400;2023-01-27T06:08:48;102688.00;;;6.35;100.00
47104;BME280;32853;52.164;5.400;2023-01-27T06:11:15;102686.44;;;6.60;100.00
47104;BME280;32853;52.164;5.400;2023-01-27T06:13:42;102690.53;;;6.27;100.00
47104;BME280;32853;52.164;5.400;2023-01-27T06:16:10;102680.81;;;6.00;100.00
47104;BME280;32853;52.164;5.400;2023-01-27T06:18:36;102643.47;;;5.89;100.00
47104;BME280;32853;52.164;5.400;2023-01-27T06:21:03;102695.72;;;6.23;100.00
47104;BME280;32853;52.164;5.400;2023-01-27T06:23:30;102693.06;;;6.20;100.00
47104;BME280;32853;52.164;5.400;2023-01-27T06:26:00;102686.91;;;6.05;100.00
47104;BME280;32853;52.164;5.400;2023-01-27T06:28:26;102710.53;;;6.34;100.00
47104;BME280;32853;52.164;5.400;2023-01-27T06:34:00;102707.50;;;5.89;100.00
47104;BME280;32853;52.164;5.400;2023-01-27T06:36:45;102712.88;;;6.07;100.00
47104;BME280;32853;52.164;5.400;2023-01-27T06:39:14;102720.78;;;6.19;100.00
47104;BME280;32853;52.164;5.400;2023-01-27T06:41:40;102713.47;;;5.78;100.00
47104;BME280;32853;52.164;5.400;2023-01-27T06:44:06;102700.78;;;6.09;100.00
47104;BME280;32853;52.164;5.400;2023-01-27T06:46:31;102674.34;;;5.62;100.00
47104;BME280;32853;52.164;5.400;2023-01-27T06:48:58;102669.59;;;6.04;100.00
47104;BME280;32853;52.164;5.400;2023-01-27T06:51:23;102704.22;;;6.08;100.00
47104;BME280;32853;52.164;5.400;2023-01-27T06:53:48;102706.06;;;6.20;100.00
47104;BME280;32853;52.164;5.400;2023-01-27T06:56:14;102721.75;;;6.30;100.00
47104;BME280;32853;52.164;5.400;2023-01-27T06:58:39;102675.53;;;5.91;100.00
47104;BME280;32853;52.164;5.400;2023-01-27T07:01:04;102704.47;;;6.37;100.00
47104;BME280;32853;52.164;5.400;2023-01-27T07:03:30;102658.13;;;5.87;100.00
47104;BME280;32853;52.164;5.400;2023-01-27T07:05:56;102673.28;;;5.43;100.00
47104;BME280;32853;52.164;5.400;2023-01-27T07:08:21;102682.78;;;5.41;100.00
47104;BME280;32853;52.164;5.400;2023-01-27T07:10:47;102717.97;;;5.96;100.00
47104;BME280;32853;52.164;5.400;2023-01-27T07:13:13;102703.97;;;5.82;100.00
47104;BME280;32853;52.164;5.400;2023-01-27T07:15:38;102712.53;;;5.75;100.00
47104;BME280;32853;52.164;5.400;2023-01-27T07:18:04;102705.84;;;5.94;100.00
47104;BME280;32853;52.164;5.400;2023-01-27T07:20:30;102706.69;;;5.91;100.00
47104;BME280;32853;52.164;5.400;2023-01-27T07:22:57;102657.13;;;5.67;100.00
47104;BME280;32853;52.164;5.400;2023-01-27T07:25:22;102715.66;;;6.27;100.00
47104;BME280;32853;52.164;5.400;2023-01-27T07:27:48;102672.09;;;5.95;100.00
47104;BME280;32853;52.164;5.400;2023-01-27T07:30:13;102714.78;;;6.25;100.00
47104;BME280;32853;52.164;5.400;2023-01-27T07:32:38;102731.22;;;6.24;100.00
47104;BME280;32853;52.164;5.400;2023-01-27T07:35:04;102731.16;;;6.16;100.00
47104;BME280;32853;52.164;5.400;2023-01-27T07:37:36;102721.59;;;6.10;100.00
47104;BME280;32853;52.164;5.400;2023-01-27T07:40:03;102700.81;;;6.10;100.00
47104;BME280;32853;52.164;5.400;2023-01-27T07:42:34;102725.78;;;5.98;100.00
47104;BME280;32853;52.164;5.400;2023-01-27T07:45:00;102744.81;;;5.95;100.00
47104;BME280;32853;52.164;5.400;2023-01-27T07:47:25;102745.75;;;6.00;100.00
47104;BME280;32853;52.164;5.400;2023-01-27T07:49:51;102745.75;;;6.03;100.00
47104;BME280;32853;52.164;5.400;2023-01-27T07:52:16;102738.22;;;5.47;100.00
47104;BME280;32853;52.164;5.400;2023-01-27T07:54:41;102749.56;;;5.56;100.00
47104;BME280;32853;52.164;5.400;2023-01-27T07:57:18;102726.72;;;5.25;100.00
47104;BME280;32853;52.164;5.400;2023-01-27T07:59:43;102744.13;;;5.34;100.00
47104;BME280;32853;52.164;5.400;2023-01-27T08:02:12;102759.84;;;5.46;100.00
47104;BME280;32853;52.164;5.400;2023-01-27T08:04:37;102702.00;;;4.87;100.00
47104;BME280;32853;52.164;5.400;2023-01-27T08:07:02;102743.75;;;5.07;100.00
47104;BME280;32853;52.164;5.400;2023-01-27T08:09:28;102747.47;;;5.25;100.00
47104;BME280;32853;52.164;5.400;2023-01-27T08:11:53;102745.88;;;5.37;100.00
47104;BME280;32853;52.164;5.400;2023-01-27T08:14:19;102725.06;;;5.32;100.00
47104;BME280;32853;52.164;5.400;2023-01-27T08:16:44;102756.81;;;5.14;100.00
47104;BME280;32853;52.164;5.400;2023-01-27T08:19:10;102750.03;;;5.24;100.00
47104;BME280;32853;52.164;5.400;2023-01-27T08:21:35;102728.28;;;5.13;100.00
47104;BME280;32853;52.164;5.400;2023-01-27T08:24:01;102752.69;;;5.29;100.00
47104;BME280;32853;52.164;5.400;2023-01-27T08:26:37;102737.97;;;5.28;100.00
47104;BME280;32853;52.164;5.400;2023-01-27T08:29:06;102765.91;;;5.48;100.00
47104;BME280;32853;52.164;5.400;2023-01-27T08:31:49;102725.84;;;5.25;100.00
47104;BME280;32853;52.164;5.400;2023-01-27T08:34:16;102705.34;;;4.77;100.00
47104;BME280;32853;52.164;5.400;2023-01-27T08:36:41;102730.97;;;4.58;100.00
47104;BME280;32853;52.164;5.400;2023-01-27T08:39:08;102755.03;;;4.51;100.00
47104;BME280;32853;52.164;5.400;2023-01-27T08:41:34;102736.19;;;4.61;100.00
47104;BME280;32853;52.164;5.400;2023-01-27T08:44:02;102751.22;;;4.84;100.00
47104;BME280;32853;52.164;5.400;2023-01-27T08:46:27;102757.69;;;5.13;100.00
47104;BME280;32853;52.164;5.400;2023-01-27T08:48:53;102745.19;;;4.86;100.00
47104;BME280;32853;52.164;5.400;2023-01-27T08:51:18;102627.88;;;4.37;100.00
47104;BME280;32853;52.164;5.400;2023-01-27T08:53:48;102734.03;;;4.90;100.00
47104;BME280;32853;52.164;5.400;2023-01-27T08:56:14;102763.47;;;4.94;100.00
47104;BME280;32853;52.164;5.400;2023-01-27T08:58:39;102695.56;;;4.60;100.00
47104;BME280;32853;52.164;5.400;2023-01-27T09:01:07;102619.91;;;4.22;100.00
47104;BME280;32853;52.164;5.400;2023-01-27T09:03:34;102674.13;;;4.71;100.00
47104;BME280;32853;52.164;5.400;2023-01-27T09:06:00;102631.13;;;4.21;100.00
47104;BME280;32853;52.164;5.400;2023-01-27T09:08:31;102736.50;;;4.81;100.00
47104;BME280;32853;52.164;5.400;2023-01-27T09:10:57;102664.84;;;4.27;100.00
47104;BME280;32853;52.164;5.400;2023-01-27T09:13:26;102787.19;;;5.21;100.00
47104;BME280;32853;52.164;5.400;2023-01-27T09:15:54;102761.91;;;5.07;100.00
47104;BME280;32853;52.164;5.400;2023-01-27T09:18:24;102748.09;;;5.08;100.00
47104;BME280;32853;52.164;5.400;2023-01-27T09:20:49;102750.81;;;5.18;100.00
47104;BME280;32853;52.164;5.400;2023-01-27T09:23:15;102784.75;;;5.32;100.00
47104;BME280;32853;52.164;5.400;2023-01-27T09:25:49;102745.47;;;5.05;100.00
47104;BME280;32853;52.164;5.400;2023-01-27T09:28:17;102770.94;;;5.36;100.00
47104;BME280;32853;52.164;5.400;2023-01-27T09:30:44;102677.03;;;4.93;100.00
47104;BME280;32853;52.164;5.400;2023-01-27T09:33:11;102737.94;;;5.24;100.00
47104;BME280;32853;52.164;5.400;2023-01-27T09:35:51;102695.31;;;5.03;100.00
47104;BME280;32853;52.164;5.400;2023-01-27T09:38:21;102748.22;;;5.18;100.00
47104;BME280;32853;52.164;5.400;2023-01-27T09:43:38;102813.63;;;5.60;100.00
47104;BME280;32853;52.164;5.400;2023-01-27T10:06:56;102817.97;;;5.62;100.00
47104;BME280;32853;52.164;5.400;2023-01-27T10:09:38;102812.06;;;5.74;100.00
47104;BME280;32853;52.164;5.400;2023-01-27T10:12:23;102816.06;;;5.47;100.00
47104;BME280;32853;52.164;5.400;2023-01-27T10:15:36;102811.94;;;5.65;100.00
47104;BME280;32853;52.164;5.400;2023-01-27T10:24:01;102813.59;;;5.55;100.00
47104;BME280;32853;52.164;5.400;2023-01-27T10:26:43;102821.63;;;5.11;100.00
47104;BME280;32853;52.164;5.400;2023-01-27T10:32:04;102815.94;;;5.37;100.00
47104;BME280;32853;52.164;5.400;2023-01-27T10:35:26;102823.53;;;5.23;100.00
47104;BME280;32853;52.164;5.400;2023-01-27T10:49:53;102791.31;;;5.07;100.00
47104;BME280;32853;52.164;5.400;2023-01-27T10:53:24;102832.41;;;5.40;100.00
47104;BME280;32853;52.164;5.400;2023-01-27T10:58:53;102824.28;;;5.16;100.00
47104;BME280;32853;52.164;5.400;2023-01-27T11:01:27;102771.78;;;4.73;100.00
47104;BME280;32853;52.164;5.400;2023-01-27T11:04:03;102834.69;;;5.19;100.00
47104;BME280;32853;52.164;5.400;2023-01-27T11:06:34;102834.91;;;5.33;100.00
47104;BME280;32853;52.164;5.400;2023-01-27T11:09:24;102741.00;;;4.96;100.00
47104;BME280;32853;52.164;5.400;2023-01-27T11:12:12;102816.66;;;5.27;100.00
47104;BME280;32853;52.164;5.400;2023-01-27T11:14:43;102815.97;;;5.41;100.00
47104;BME280;32853;52.164;5.400;2023-01-27T11:17:16;102825.34;;;5.30;100.00
47104;BME280;32853;52.164;5.400;2023-01-27T11:23:01;102810.00;;;5.45;100.00
47104;BME280;32853;52.164;5.400;2023-01-27T11:31:21;102812.34;;;5.27;100.00
47104;BME280;32853;52.164;5.400;2023-01-27T11:36:38;102793.72;;;5.60;100.00
47104;BME280;32853;52.164;5.400;2023-01-27T11:39:04;102806.94;;;5.80;100.00
47104;BME280;32853;52.164;5.400;2023-01-27T11:41:37;102805.94;;;5.66;100.00
47104;BME280;32853;52.164;5.400;2023-01-27T11:44:28;102768.28;;;5.32;100.00
47104;BME280;32853;52.164;5.400;2023-01-27T11:46:56;102777.28;;;5.58;100.00
47104;BME280;32853;52.164;5.400;2023-01-27T11:49:28;102804.94;;;5.58;100.00
47104;BME280;32853;52.164;5.400;2023-01-27T11:52:13;102798.09;;;5.64;100.00
47104;BME280;32853;52.164;5.400;2023-01-27T11:57:22;102786.34;;;5.92;100.00
47104;BME280;32853;52.164;5.400;2023-01-27T11:59:58;102775.19;;;6.01;100.00
47104;BME280;32853;52.164;5.400;2023-01-27T12:02:41;102784.56;;;5.90;100.00
47104;BME280;32853;52.164;5.400;2023-01-27T12:05:12;102789.91;;;6.02;100.00
47104;BME280;32853;52.164;5.400;2023-01-27T12:08:03;102782.84;;;5.90;100.00
47104;BME280;32853;52.164;5.400;2023-01-27T12:10:34;102755.06;;;5.86;100.00
47104;BME280;32853;52.164;5.400;2023-01-27T12:13:15;102731.53;;;5.68;100.00
47104;BME280;32853;52.164;5.400;2023-01-27T12:15:52;102779.56;;;6.06;100.00
47104;BME280;32853;52.164;5.400;2023-01-27T12:18:18;102778.88;;;6.26;100.00
47104;BME280;32853;52.164;5.400;2023-01-27T12:21:08;102767.63;;;6.27;100.00
47104;BME280;32853;52.164;5.400;2023-01-27T12:23:54;102763.19;;;6.14;100.00
47104;BME280;32853;52.164;5.400;2023-01-27T12:26:39;102686.81;;;5.93;100.00
47104;BME280;32853;52.164;5.400;2023-01-27T12:29:38;102759.63;;;6.05;100.00
47104;BME280;32853;52.164;5.400;2023-01-27T12:32:12;102769.13;;;6.03;100.00
47104;BME280;32853;52.164;5.400;2023-01-27T12:38:03;102725.69;;;5.89;100.00
47104;BME280;32853;52.164;5.400;2023-01-27T12:40:31;102734.41;;;5.92;100.00
47104;BME280;32853;52.164;5.400;2023-01-27T12:43:15;102764.22;;;6.34;100.00
47104;BME280;32853;52.164;5.400;2023-01-27T12:49:25;102752.69;;;6.03;100.00
47104;BME280;32853;52.164;5.400;2023-01-27T12:52:03;102734.25;;;5.78;100.00
47104;BME280;32853;52.164;5.400;2023-01-27T12:54:32;102733.41;;;5.82;100.00
47104;BME280;32853;52.164;5.400;2023-01-27T12:57:09;102753.47;;;5.97;100.00
47104;BME280;32853;52.164;5.400;2023-01-27T13:00:08;102749.34;;;6.16;100.00
47104;BME280;32853;52.164;5.400;2023-01-27T13:02:40;102749.34;;;6.18;100.00
47104;BME280;32853;52.164;5.400;2023-01-27T13:05:06;102702.97;;;5.68;100.00
47104;BME280;32853;52.164;5.400;2023-01-27T13:07:49;102721.25;;;5.77;100.00
47104;BME280;32853;52.164;5.400;2023-01-27T13:10:24;102726.56;;;5.88;100.00
47104;BME280;32853;52.164;5.400;2023-01-27T13:12:53;102715.22;;;5.79;100.00
47104;BME280;32853;52.164;5.400;2023-01-27T13:15:21;102692.34;;;5.43;100.00
47104;BME280;32853;52.164;5.400;2023-01-27T13:17:54;102743.16;;;6.02;100.00
47104;BME280;32853;52.164;5.400;2023-01-27T13:20:24;102744.88;;;6.00;100.00
47104;BME280;32853;52.164;5.400;2023-01-27T13:23:22;102744.88;;;6.01;100.00
47104;BME280;32853;52.164;5.400;2023-01-27T13:28:54;102759.13;;;5.61;100.00
47104;BME280;32853;52.164;5.400;2023-01-27T13:34:33;102756.84;;;5.89;100.00
47104;BME280;32853;52.164;5.400;2023-01-27T13:37:23;102757.78;;;5.94;100.00
47104;BME280;32853;52.164;5.400;2023-01-27T13:40:02;102760.97;;;5.71;100.00
47104;BME280;32853;52.164;5.400;2023-01-27T13:45:47;102749.84;;;5.83;100.00
47104;BME280;32853;52.164;5.400;2023-01-27T13:51:34;102750.09;;;6.04;100.00
47104;BME280;32853;52.164;5.400;2023-01-27T13:54:01;102741.69;;;5.49;100.00
47104;BME280;32853;52.164;5.400;2023-01-27T13:56:40;102754.66;;;5.48;100.00
47104;BME280;32853;52.164;5.400;2023-01-27T14:05:30;102704.00;;;5.09;100.00
47104;BME280;32853;52.164;5.400;2023-01-27T14:10:39;102763.53;;;5.67;100.00
47104;BME280;32853;52.164;5.400;2023-01-27T14:15:51;102733.75;;;5.34;100.00
47104;BME280;32853;52.164;5.400;2023-01-27T14:18:28;102773.84;;;5.61;100.00
47104;BME280;32853;52.164;5.400;2023-01-27T14:23:40;102772.91;;;5.56;100.00
47104;BME280;32853;52.164;5.400;2023-01-27T14:37:29;102785.84;;;5.54;100.00
47104;BME280;32853;52.164;5.400;2023-01-27T14:45:16;102790.22;;;6.32;100.00
47104;BME280;32853;52.164;5.400;2023-01-27T14:48:06;102789.75;;;5.90;100.00
47104;BME280;32853;52.164;5.400;2023-01-27T14:51:07;102790.25;;;5.60;100.00
47104;BME280;32853;52.164;5.400;2023-01-27T14:53:46;102787.09;;;5.85;100.00
47104;BME280;32853;52.164;5.400;2023-01-27T14:56:44;102792.44;;;5.96;100.00
47104;BME280;32853;52.164;5.400;2023-01-27T15:10:26;102764.75;;;5.98;100.00
47104;BME280;32853;52.164;5.400;2023-01-27T15:24:55;102815.66;;;5.85;100.00
47104;BME280;32853;52.164;5.400;2023-01-27T15:27:22;102828.59;;;5.80;100.00
47104;BME280;32853;52.164;5.400;2023-01-27T15:29:48;102831.44;;;5.32;100.00
47104;BME280;32853;52.164;5.400;2023-01-27T15:34:51;102741.72;;;4.86;100.00
47104;BME280;32853;52.164;5.400;2023-01-27T15:37:25;102763.03;;;5.25;100.00
47104;BME280;32853;52.164;5.400;2023-01-27T15:42:19;102786.41;;;5.30;100.00
47104;BME280;32853;52.164;5.400;2023-01-27T15:47:23;102827.75;;;5.84;100.00